Time;durP1;ratioP1;P1;durP2;ratioP2;P2;SDS_P1;SDS_P2;PMS_P1;PMS_P2;Temp;Humidity;BMP_temperature;BMP_pressure;BME280_temperature;BME280_humidity;BME280_pressure;Samples;Min_cycle;Max_cycle;Signal;HPM_P1;HPM_P2
2023/06/01 00:02:03;;;;;;;0.40;0.40;;;12.30;99.90;;;;;;5117811;28;20077;-69
2023/06/01 00:04:29;;;;;;;0.60;0.60;;;12.00;99.90;;;;;;5116546;28;20073;-70
2023/06/01 00:06:54;;;;;;;0.50;0.50;;;12.00;99.90;;;;;;5117999;28;20039;-69
2023/06/01 00:09:20;;;;;;;0.50;0.50;;;12.00;99.90;;;;;;5117678;28;20047;-70
2023/06/01 00:11:46;;;;;;;0.50;0.50;;;12.00;99.90;;;;;;5117541;28;20071;-69
2023/06/01 00:14:12;;;;;;;0.40;0.40;;;11.90;99.90;;;;;;5117536;28;20044;-70
2023/06/01 00:16:37;;;;;;;0.50;0.50;;;12.00;99.90;;;;;;5117426;28;20440;-70
2023/06/01 00:19:03;;;;;;;0.60;0.60;;;11.90;99.90;;;;;;5117432;28;20051;-68
2023/06/01 00:21:32;;;;;;;0.50;0.50;;;12.00;99.90;;;;;;5117455;28;20046;-69
2023/06/01 00:23:58;;;;;;;0.50;0.50;;;12.10;99.90;;;;;;5117721;27;20042;-68
2023/06/01 00:26:25;;;;;;;0.40;0.40;;;12.00;99.90;;;;;;5117251;28;20035;-69
2023/06/01 00:28:51;;;;;;;0.65;0.65;;;12.60;99.90;;;;;;5117242;28;20043;-69
2023/06/01 00:31:16;;;;;;;0.45;0.45;;;12.00;99.90;;;;;;5117078;28;20047;-69
2023/06/01 00:33:42;;;;;;;0.47;0.47;;;12.00;99.90;;;;;;5116843;28;20112;-69
2023/06/01 00:36:08;;;;;;;0.40;0.40;;;12.00;99.90;;;;;;5117076;28;20058;-70
2023/06/01 00:38:33;;;;;;;0.50;0.50;;;12.00;99.90;;;;;;5116981;28;20038;-69
2023/06/01 00:40:59;;;;;;;0.40;0.40;;;12.00;99.90;;;;;;5117049;28;20039;-70
2023/06/01 00:43:25;;;;;;;0.40;0.40;;;12.00;99.90;;;;;;5117120;28;20035;-69
2023/06/01 00:45:50;;;;;;;0.50;0.50;;;12.00;99.90;;;;;;5116748;28;20102;-68
2023/06/01 00:48:17;;;;;;;1.10;1.08;;;12.00;99.90;;;;;;5116527;28;20027;-70
2023/06/01 00:50:44;;;;;;;0.85;0.85;;;12.10;99.90;;;;;;5116560;28;20467;-69
2023/06/01 00:53:16;;;;;;;0.47;0.47;;;12.00;99.90;;;;;;5116894;28;20039;-68
2023/06/01 00:55:41;;;;;;;0.50;0.50;;;12.10;99.90;;;;;;5116784;28;20036;-69
2023/06/01 00:58:07;;;;;;;0.50;0.50;;;12.30;99.90;;;;;;5116447;28;20048;-70
2023/06/01 01:00:33;;;;;;;0.40;0.40;;;12.20;99.90;;;;;;5116666;28;20050;-69
2023/06/01 01:03:06;;;;;;;0.50;0.50;;;12.10;99.90;;;;;;5116406;28;20052;-70
2023/06/01 01:05:33;;;;;;;0.40;0.40;;;12.10;99.90;;;;;;5116063;28;20138;-69
2023/06/01 01:08:03;;;;;;;0.50;0.50;;;12.00;99.90;;;;;;5116467;28;20039;-70
2023/06/01 01:10:40;;;;;;;0.40;0.40;;;12.10;99.90;;;;;;5115599;28;20044;-70
2023/06/01 01:13:12;;;;;;;0.50;0.50;;;12.70;99.90;;;;;;5116421;27;20087;-69
2023/06/01 01:16:02;;;;;;;0.95;0.95;;;12.00;99.90;;;;;;5116441;28;20051;-69
2023/06/01 01:18:41;;;;;;;0.70;0.70;;;12.00;99.90;;;;;;5116356;28;20047;-69
2023/06/01 01:21:28;;;;;;;0.60;0.60;;;12.00;99.90;;;;;;5116287;28;20035;-70
2023/06/01 01:24:00;;;;;;;0.40;0.40;;;12.00;99.90;;;;;;5116539;27;20079;-69
2023/06/01 01:26:49;;;;;;;0.40;0.40;;;12.00;99.90;;;;;;5116120;28;20043;-70
2023/06/01 01:29:16;;;;;;;0.40;0.40;;;12.00;99.90;;;;;;5116099;28;20524;-69
2023/06/01 01:31:42;;;;;;;0.75;0.75;;;12.00;99.90;;;;;;5116203;28;20050;-70
2023/06/01 01:34:08;;;;;;;0.83;0.83;;;12.00;99.90;;;;;;5115697;28;20048;-69
2023/06/01 01:36:35;;;;;;;0.40;0.40;;;12.10;99.90;;;;;;5116338;27;20356;-70
2023/06/01 01:39:01;;;;;;;;;;;12.00;99.90;;;;;;5116328;28;20036;-70
2023/06/01 01:41:27;;;;;;;0.40;0.40;;;11.90;99.90;;;;;;5115873;28;19916;-69
2023/06/01 01:43:54;;;;;;;0.50;0.50;;;11.90;99.90;;;;;;5114661;28;20032;-69
2023/06/01 01:46:27;;;;;;;;;;;11.80;99.90;;;;;;5116001;28;20490;-69
2023/06/01 01:49:14;;;;;;;0.40;0.40;;;11.80;99.90;;;;;;5115388;28;19916;-70
2023/06/01 01:52:09;;;;;;;0.50;0.50;;;11.80;99.90;;;;;;5115674;28;20039;-69
2023/06/01 01:54:43;;;;;;;0.40;0.40;;;11.80;99.90;;;;;;5115774;28;20040;-69
2023/06/01 01:57:11;;;;;;;0.40;0.40;;;11.80;99.90;;;;;;5115906;28;20123;-69
2023/06/01 01:59:37;;;;;;;0.40;0.40;;;11.80;99.90;;;;;;5115255;28;20506;-70
2023/06/01 02:02:03;;;;;;;0.50;0.50;;;11.80;99.90;;;;;;5115028;28;20487;-70
2023/06/01 02:04:30;;;;;;;0.70;0.70;;;11.70;99.90;;;;;;5115362;28;20280;-69
2023/06/01 02:06:55;;;;;;;0.40;0.40;;;11.70;99.90;;;;;;5115318;28;20036;-69
2023/06/01 02:09:21;;;;;;;0.50;0.50;;;11.70;99.90;;;;;;5115351;28;20055;-70
2023/06/01 02:11:47;;;;;;;0.40;0.40;;;11.70;99.90;;;;;;5115495;28;20035;-69
2023/06/01 02:14:12;;;;;;;0.40;0.40;;;11.60;99.90;;;;;;5115220;28;20047;-70
2023/06/01 02:16:38;;;;;;;0.40;0.40;;;11.70;99.90;;;;;;5115347;28;20146;-70
2023/06/01 02:19:04;;;;;;;3.53;2.17;;;11.70;99.90;;;;;;5115075;28;20058;-69
2023/06/01 02:21:31;;;;;;;0.90;0.90;;;11.60;99.90;;;;;;5115038;28;20502;-70
2023/06/01 02:24:04;;;;;;;0.40;0.40;;;11.60;99.90;;;;;;5115016;28;20046;-69
2023/06/01 02:26:30;;;;;;;0.40;0.40;;;11.60;99.90;;;;;;5114905;28;20086;-69
2023/06/01 02:28:56;;;;;;;0.50;0.50;;;11.70;99.90;;;;;;5114964;28;20040;-70
2023/06/01 02:31:22;;;;;;;0.40;0.40;;;11.80;99.90;;;;;;5115172;28;20092;-68
2023/06/01 02:33:48;;;;;;;0.40;0.40;;;11.60;99.90;;;;;;5114849;28;20047;-70
2023/06/01 02:36:16;;;;;;;1.13;1.08;;;11.70;99.90;;;;;;5114781;28;20467;-69
2023/06/01 02:38:42;;;;;;;0.50;0.50;;;11.60;99.90;;;;;;5114686;28;20035;-70
2023/06/01 02:41:08;;;;;;;0.52;0.52;;;11.60;99.90;;;;;;5114683;28;20048;-70
2023/06/01 02:43:35;;;;;;;0.50;0.50;;;11.60;99.90;;;;;;5115016;28;20042;-70
2023/06/01 02:46:00;;;;;;;0.40;0.40;;;11.50;99.90;;;;;;5114333;28;20082;-70
2023/06/01 02:48:26;;;;;;;0.40;0.40;;;11.50;99.90;;;;;;5114719;28;20040;-69
2023/06/01 02:50:52;;;;;;;0.50;0.50;;;11.60;99.90;;;;;;5114530;28;20036;-69
2023/06/01 02:53:17;;;;;;;0.43;0.43;;;11.50;99.90;;;;;;5114531;28;20075;-70
2023/06/01 02:55:43;;;;;;;0.63;0.63;;;11.50;99.90;;;;;;5114485;28;20363;-70
2023/06/01 02:58:14;;;;;;;0.40;0.40;;;11.50;99.90;;;;;;5114440;28;20272;-69
2023/06/01 03:00:40;;;;;;;0.50;0.50;;;11.50;99.90;;;;;;5114700;28;20043;-70
2023/06/01 03:03:05;;;;;;;0.50;0.50;;;11.40;99.90;;;;;;5114556;28;20052;-70
2023/06/01 03:05:35;;;;;;;0.40;0.40;;;11.50;99.90;;;;;;5114311;28;20379;-69
2023/06/01 03:08:01;;;;;;;0.50;0.50;;;11.50;99.90;;;;;;5114182;28;20080;-69
2023/06/01 03:10:27;;;;;;;0.40;0.40;;;11.50;99.90;;;;;;5114289;28;20036;-69
2023/06/01 03:12:52;;;;;;;0.43;0.43;;;11.40;99.90;;;;;;5114322;28;20069;-69
2023/06/01 03:15:18;;;;;;;0.63;0.63;;;11.40;99.90;;;;;;5114170;28;20035;-69
2023/06/01 03:17:43;;;;;;;0.43;0.43;;;11.40;99.90;;;;;;5114120;28;20118;-69
2023/06/01 03:20:14;;;;;;;0.93;0.93;;;11.40;99.90;;;;;;5114166;28;20063;-69
2023/06/01 03:22:49;;;;;;;0.50;0.50;;;11.40;99.90;;;;;;5113975;28;20266;-69
2023/06/01 03:25:16;;;;;;;0.40;0.40;;;11.40;99.90;;;;;;5114419;28;20425;-68
2023/06/01 03:27:42;;;;;;;;;;;11.30;99.90;;;;;;5113987;28;20048;-70
2023/06/01 03:30:09;;;;;;;0.40;0.40;;;11.60;99.90;;;;;;5113919;28;19916;-69
2023/06/01 03:32:39;;;;;;;0.63;0.63;;;11.30;99.90;;;;;;5113877;28;20036;-69
2023/06/01 03:35:07;;;;;;;0.70;0.70;;;11.30;99.90;;;;;;5113922;28;20086;-69
2023/06/01 03:37:34;;;;;;;0.50;0.50;;;11.30;99.90;;;;;;5114362;28;20044;-68
2023/06/01 03:40:01;;;;;;;0.40;0.40;;;11.30;99.90;;;;;;5113911;28;20063;-69
2023/06/01 03:42:26;;;;;;;0.40;0.40;;;11.30;99.90;;;;;;5113935;28;20036;-69
2023/06/01 03:44:52;;;;;;;0.40;0.40;;;11.40;99.90;;;;;;5113889;28;20118;-69
2023/06/01 03:47:18;;;;;;;0.45;0.45;;;11.40;99.90;;;;;;5113870;28;20113;-70
2023/06/01 03:49:43;;;;;;;0.50;0.50;;;11.50;99.90;;;;;;5113854;28;20112;-68
2023/06/01 03:52:09;;;;;;;0.40;0.40;;;11.50;99.90;;;;;;5114182;28;20051;-69
2023/06/01 03:54:35;;;;;;;1.30;1.20;;;11.50;99.90;;;;;;5114245;28;20043;-70
2023/06/01 03:57:01;;;;;;;0.40;0.40;;;11.60;99.90;;;;;;5113839;28;20065;-70
2023/06/01 03:59:27;;;;;;;0.43;0.43;;;11.40;99.90;;;;;;5114020;28;20085;-69
2023/06/01 04:01:53;;;;;;;0.50;0.50;;;11.40;99.90;;;;;;5113736;28;20383;-69
2023/06/01 04:04:25;;;;;;;0.40;0.40;;;11.40;99.90;;;;;;5113771;28;20058;-70
2023/06/01 04:06:51;;;;;;;0.40;0.40;;;11.40;99.90;;;;;;5113975;28;20152;-69
2023/06/01 04:09:18;;;;;;;0.50;0.50;;;11.50;99.90;;;;;;5114059;28;20039;-69
2023/06/01 04:11:44;;;;;;;0.50;0.50;;;11.40;99.90;;;;;;5113538;28;20040;-70
2023/06/01 04:14:10;;;;;;;0.40;0.40;;;11.40;99.90;;;;;;5113843;28;20059;-69
2023/06/01 04:16:35;;;;;;;0.60;0.60;;;11.50;99.90;;;;;;5113590;28;20441;-69
2023/06/01 04:19:01;;;;;;;1.30;1.20;;;11.50;99.90;;;;;;5113579;28;20042;-69
2023/06/01 04:21:27;;;;;;;0.40;0.40;;;11.50;99.90;;;;;;5113543;28;20078;-69
2023/06/01 04:23:53;;;;;;;0.45;0.45;;;11.50;99.90;;;;;;5113567;28;20043;-70
2023/06/01 04:26:18;;;;;;;0.40;0.40;;;11.50;99.90;;;;;;5113516;28;20035;-69
2023/06/01 04:28:45;;;;;;;0.45;0.45;;;11.50;99.90;;;;;;5113852;28;20036;-68
2023/06/01 04:31:18;;;;;;;0.40;0.40;;;11.50;99.90;;;;;;5113164;28;20044;-70
2023/06/01 04:33:52;;;;;;;0.40;0.40;;;11.40;99.90;;;;;;5113485;28;20032;-69
2023/06/01 04:36:21;;;;;;;0.40;0.40;;;11.40;99.90;;;;;;5113740;28;20089;-70
2023/06/01 04:38:51;;;;;;;0.65;0.65;;;11.40;99.90;;;;;;5113450;28;20032;-70
2023/06/01 04:41:17;;;;;;;2.17;0.63;;;12.00;99.90;;;;;;5116008;28;20066;-69
2023/06/01 04:43:42;;;;;;;0.47;0.47;;;11.40;99.90;;;;;;5117162;28;20028;-70
2023/06/01 04:46:08;;;;;;;0.40;0.40;;;11.40;99.90;;;;;;5116988;28;20138;-70
2023/06/01 04:48:34;;;;;;;0.40;0.40;;;11.40;99.90;;;;;;5116892;28;20118;-69
2023/06/01 04:50:59;;;;;;;0.40;0.40;;;11.40;99.90;;;;;;5117464;28;20065;-70
2023/06/01 04:53:29;;;;;;;0.40;0.40;;;11.50;99.90;;;;;;5116852;28;20046;-70
2023/06/01 04:55:56;;;;;;;0.50;0.50;;;11.90;99.90;;;;;;5116589;28;20459;-70
2023/06/01 04:58:21;;;;;;;0.40;0.40;;;11.60;99.90;;;;;;5116843;28;20038;-69
2023/06/01 05:00:47;;;;;;;0.40;0.40;;;11.60;99.90;;;;;;5116774;28;20122;-69
2023/06/01 05:03:13;;;;;;;0.40;0.40;;;11.60;99.90;;;;;;5116454;28;20112;-69
2023/06/01 05:05:39;;;;;;;0.40;0.40;;;11.50;99.90;;;;;;5116587;28;20040;-70
2023/06/01 05:08:04;;;;;;;0.40;0.40;;;11.50;99.90;;;;;;5117067;28;20109;-69
2023/06/01 05:10:30;;;;;;;0.40;0.40;;;11.50;99.90;;;;;;5116636;28;20040;-69
2023/06/01 05:12:56;;;;;;;0.50;0.50;;;11.50;99.90;;;;;;5116519;28;20468;-68
2023/06/01 05:15:21;;;;;;;0.43;0.43;;;11.50;99.90;;;;;;5116390;28;20039;-68
2023/06/01 05:17:47;;;;;;;0.60;0.60;;;11.40;99.90;;;;;;5116361;28;20452;-69
2023/06/01 05:20:13;;;;;;;0.40;0.40;;;11.40;99.90;;;;;;5116382;28;20039;-68
2023/06/01 05:22:45;;;;;;;0.50;0.50;;;11.40;99.90;;;;;;5116331;28;20043;-69
2023/06/01 05:25:10;;;;;;;0.40;0.40;;;11.40;99.90;;;;;;5116177;28;20035;-69
2023/06/01 05:27:36;;;;;;;0.43;0.43;;;11.40;99.90;;;;;;5116182;28;20127;-68
2023/06/01 05:30:03;;;;;;;0.40;0.40;;;11.40;99.90;;;;;;5116068;28;20040;-69
2023/06/01 05:32:29;;;;;;;0.40;0.40;;;11.50;99.90;;;;;;5115965;28;20043;-69
2023/06/01 05:34:55;;;;;;;0.57;0.57;;;11.50;99.90;;;;;;5098048;28;20036;-69
2023/06/01 05:37:21;;;;;;;0.43;0.43;;;11.60;99.90;;;;;;5114991;28;20379;-68
2023/06/01 05:39:46;;;;;;;0.50;0.50;;;11.50;99.90;;;;;;5116037;28;20281;-69
2023/06/01 05:42:12;;;;;;;0.40;0.40;;;11.50;99.90;;;;;;5115824;28;20039;-69
2023/06/01 05:44:37;;;;;;;0.40;0.40;;;11.60;99.90;;;;;;5115839;28;20046;-69
2023/06/01 05:47:03;;;;;;;0.50;0.50;;;11.50;99.90;;;;;;5115685;28;20129;-69
2023/06/01 05:49:31;;;;;;;1.90;0.88;;;11.50;99.90;;;;;;5116139;28;20040;-70
2023/06/01 05:51:57;;;;;;;0.40;0.40;;;11.60;99.90;;;;;;5115214;28;20047;-69
2023/06/01 05:54:23;;;;;;;0.50;0.50;;;11.60;99.90;;;;;;5115879;28;20479;-68
2023/06/01 05:56:48;;;;;;;0.40;0.40;;;12.20;99.90;;;;;;5115659;28;20039;-68
2023/06/01 05:59:14;;;;;;;0.50;0.50;;;11.70;99.90;;;;;;5114612;28;20047;-68
2023/06/01 06:01:40;;;;;;;0.40;0.40;;;11.70;99.90;;;;;;5115450;28;20036;-69
2023/06/01 06:04:06;;;;;;;1.95;1.85;;;11.70;99.90;;;;;;5115959;28;20392;-69
2023/06/01 06:06:31;;;;;;;0.40;0.40;;;11.70;99.90;;;;;;5115617;28;20054;-69
2023/06/01 06:08:57;;;;;;;0.40;0.40;;;11.80;99.90;;;;;;5115369;28;20094;-68
2023/06/01 06:11:22;;;;;;;0.50;0.50;;;11.80;99.90;;;;;;5115446;28;20127;-68
2023/06/01 06:13:49;;;;;;;0.77;0.77;;;11.80;99.90;;;;;;5115246;28;20111;-69
2023/06/01 06:16:15;;;;;;;;;;;11.80;99.90;;;;;;5115576;28;20086;-68
2023/06/01 06:18:41;;;;;;;0.40;0.40;;;11.80;99.90;;;;;;5115129;28;20284;-69
2023/06/01 06:21:06;;;;;;;0.40;0.40;;;11.80;99.90;;;;;;5115010;28;20035;-69
2023/06/01 06:23:32;;;;;;;0.50;0.50;;;11.70;99.90;;;;;;5115263;28;20121;-69
2023/06/01 06:25:58;;;;;;;0.43;0.43;;;11.80;99.90;;;;;;5114966;28;20043;-69
2023/06/01 06:28:24;;;;;;;0.40;0.40;;;11.80;99.90;;;;;;5115042;28;20097;-68
2023/06/01 06:30:50;;;;;;;0.40;0.40;;;11.80;99.90;;;;;;5114885;28;20044;-70
2023/06/01 06:33:16;;;;;;;0.50;0.50;;;11.80;99.90;;;;;;5114882;28;20486;-69
2023/06/01 06:35:42;;;;;;;0.40;0.40;;;11.80;99.90;;;;;;5114866;28;20035;-69
2023/06/01 06:38:08;;;;;;;0.65;0.65;;;11.80;99.90;;;;;;5115087;28;20084;-69
2023/06/01 06:40:33;;;;;;;0.40;0.40;;;11.90;99.90;;;;;;5114859;28;20039;-70
2023/06/01 06:42:59;;;;;;;1.13;1.02;;;11.90;99.90;;;;;;5113628;28;20352;-69
2023/06/01 06:45:25;;;;;;;0.40;0.40;;;11.90;99.90;;;;;;5114609;28;20028;-69
2023/06/01 06:47:50;;;;;;;0.50;0.50;;;11.90;99.90;;;;;;5114644;28;20132;-69
2023/06/01 06:50:17;;;;;;;0.65;0.65;;;11.90;99.90;;;;;;5114601;28;20048;-69
2023/06/01 06:52:42;;;;;;;0.40;0.40;;;12.00;99.90;;;;;;5114604;28;20066;-69
2023/06/01 06:55:08;;;;;;;0.50;0.50;;;12.10;99.90;;;;;;5114569;28;20031;-68
2023/06/01 06:57:35;;;;;;;0.40;0.40;;;12.20;99.90;;;;;;5114585;28;20039;-68
2023/06/01 07:00:04;;;;;;;0.50;0.50;;;12.10;99.90;;;;;;5114435;28;20031;-70
2023/06/01 07:02:31;;;;;;;0.40;0.40;;;12.30;99.90;;;;;;5113790;28;20056;-70
2023/06/01 07:04:57;;;;;;;0.50;0.50;;;12.30;99.90;;;;;;5114108;28;20043;-69
2023/06/01 07:07:22;;;;;;;0.40;0.40;;;12.30;99.90;;;;;;5114074;28;20058;-69
2023/06/01 07:09:48;;;;;;;0.70;0.70;;;12.20;99.90;;;;;;5114301;28;20036;-69
2023/06/01 07:12:14;;;;;;;0.40;0.40;;;12.20;99.90;;;;;;5113075;28;20047;-69
2023/06/01 07:14:40;;;;;;;0.40;0.40;;;12.30;99.90;;;;;;5113946;28;20043;-68
2023/06/01 07:17:05;;;;;;;0.40;0.40;;;12.30;99.90;;;;;;5114232;28;20062;-69
2023/06/01 07:19:32;;;;;;;0.40;0.40;;;12.40;99.90;;;;;;5114597;28;20035;-69
2023/06/01 07:21:59;;;;;;;;;;;12.40;99.90;;;;;;5114562;28;20047;-69
2023/06/01 07:24:26;;;;;;;0.40;0.40;;;12.50;99.90;;;;;;5113912;28;19915;-68
2023/06/01 07:26:51;;;;;;;0.40;0.40;;;12.60;99.90;;;;;;5114124;28;20047;-69
2023/06/01 07:29:17;;;;;;;0.40;0.40;;;12.60;99.90;;;;;;5114012;28;20064;-69
2023/06/01 07:31:43;;;;;;;0.40;0.40;;;12.70;99.90;;;;;;5114097;28;20039;-69
2023/06/01 07:34:09;;;;;;;0.40;0.40;;;12.60;99.90;;;;;;5114418;28;20487;-69
2023/06/01 07:36:36;;;;;;;0.40;0.40;;;12.70;99.90;;;;;;5113753;28;20031;-71
2023/06/01 07:39:05;;;;;;;0.40;0.40;;;12.70;99.90;;;;;;5114018;28;20043;-69
2023/06/01 07:41:35;;;;;;;0.40;0.40;;;12.70;99.90;;;;;;5113922;28;20043;-69
2023/06/01 07:44:00;;;;;;;0.40;0.40;;;12.70;99.90;;;;;;5113829;28;20039;-69
2023/06/01 07:46:26;;;;;;;0.77;0.77;;;12.80;99.90;;;;;;5114794;28;20043;-70
2023/06/01 07:48:51;;;;;;;0.40;0.40;;;12.80;99.90;;;;;;5113909;28;20041;-70
2023/06/01 07:51:17;;;;;;;0.40;0.40;;;12.80;99.90;;;;;;5113933;28;20092;-69
2023/06/01 07:53:43;;;;;;;0.47;0.47;;;12.80;99.90;;;;;;5113843;28;20088;-69
2023/06/01 07:56:09;;;;;;;0.50;0.50;;;12.80;99.90;;;;;;5114226;28;20082;-69
2023/06/01 07:58:35;;;;;;;2.90;2.33;;;12.70;99.90;;;;;;5114091;28;20075;-70
2023/06/01 08:01:01;;;;;;;0.50;0.50;;;12.80;99.90;;;;;;5114229;28;20048;-69
2023/06/01 08:03:26;;;;;;;0.40;0.40;;;12.70;99.90;;;;;;5114422;28;20044;-69
2023/06/01 08:05:57;;;;;;;0.40;0.40;;;12.80;99.90;;;;;;5113704;28;20043;-69
2023/06/01 08:08:23;;;;;;;0.40;0.40;;;12.90;99.90;;;;;;5114022;28;20078;-69
2023/06/01 08:10:49;;;;;;;0.40;0.40;;;13.00;99.90;;;;;;5113680;28;20063;-70
2023/06/01 08:13:15;;;;;;;0.40;0.40;;;13.10;99.90;;;;;;5113615;28;20388;-69
2023/06/01 08:15:42;;;;;;;0.40;0.40;;;13.10;99.90;;;;;;5116871;28;20115;-70
2023/06/01 08:18:08;;;;;;;0.40;0.40;;;13.70;99.90;;;;;;5117470;28;20050;-70
2023/06/01 08:20:35;;;;;;;0.40;0.40;;;13.10;99.90;;;;;;5117520;28;20375;-69
2023/06/01 08:23:01;;;;;;;;;;;13.10;99.90;;;;;;5117822;28;20035;-69
2023/06/01 08:25:27;;;;;;;0.50;0.50;;;13.10;99.90;;;;;;5117272;28;19961;-69
2023/06/01 08:27:52;;;;;;;0.40;0.40;;;13.10;99.90;;;;;;5117344;28;20040;-69
2023/06/01 08:30:18;;;;;;;0.40;0.40;;;13.20;99.90;;;;;;5117398;28;20080;-70
2023/06/01 08:32:43;;;;;;;0.30;0.30;;;13.20;99.90;;;;;;5117287;28;20036;-70
2023/06/01 08:35:09;;;;;;;0.40;0.40;;;13.20;99.90;;;;;;5117282;28;20381;-69
2023/06/01 08:37:36;;;;;;;0.40;0.40;;;13.30;99.90;;;;;;5117154;28;20046;-68
2023/06/01 08:40:04;;;;;;;0.40;0.40;;;13.40;99.90;;;;;;5117122;28;20035;-69
2023/06/01 08:42:34;;;;;;;0.40;0.40;;;13.40;99.90;;;;;;5117060;28;20043;-69
2023/06/01 08:45:04;;;;;;;0.40;0.40;;;13.30;99.90;;;;;;5117356;28;20051;-69
2023/06/01 08:47:32;;;;;;;0.50;0.50;;;13.40;99.90;;;;;;5117025;27;20039;-69
2023/06/01 08:50:01;;;;;;;0.47;0.47;;;13.60;99.90;;;;;;5116911;28;20085;-69
2023/06/01 08:52:31;;;;;;;0.40;0.40;;;13.70;99.90;;;;;;5116900;28;20046;-69
2023/06/01 08:55:01;;;;;;;1.67;1.13;;;13.80;99.90;;;;;;5116790;28;20039;-69
2023/06/01 08:57:31;;;;;;;0.50;0.50;;;13.80;99.90;;;;;;5116872;28;20039;-69
2023/06/01 08:59:58;;;;;;;0.50;0.50;;;13.80;99.90;;;;;;5115543;28;20031;-68
2023/06/01 09:02:24;;;;;;;0.40;0.40;;;13.80;99.90;;;;;;5116297;28;20080;-69
2023/06/01 09:04:50;;;;;;;0.40;0.40;;;13.80;99.90;;;;;;5115432;28;20108;-68
2023/06/01 09:07:17;;;;;;;0.50;0.50;;;13.80;99.90;;;;;;5116596;28;20420;-70
2023/06/01 09:09:43;;;;;;;0.50;0.50;;;13.80;99.90;;;;;;5116471;28;20479;-70
2023/06/01 09:12:25;;;;;;;0.40;0.40;;;13.90;99.90;;;;;;5117205;28;20138;-69
2023/06/01 09:15:10;;;;;;;0.40;0.40;;;14.00;99.90;;;;;;5116491;28;20039;-69
2023/06/01 09:17:37;;;;;;;1.00;1.00;;;14.00;99.90;;;;;;5116574;28;20044;-69
2023/06/01 09:20:04;;;;;;;;;;;13.90;99.90;;;;;;5116794;28;20052;-69
2023/06/01 09:22:46;;;;;;;0.40;0.40;;;13.90;99.90;;;;;;5116224;28;19966;-69
2023/06/01 09:25:13;;;;;;;0.40;0.40;;;13.90;99.90;;;;;;5116131;28;20070;-69
2023/06/01 09:27:47;;;;;;;0.40;0.40;;;14.00;99.90;;;;;;5115529;28;20051;-69
2023/06/01 09:30:13;;;;;;;0.40;0.40;;;13.90;99.90;;;;;;5116643;28;20035;-69
2023/06/01 09:32:39;;;;;;;0.47;0.47;;;13.90;99.90;;;;;;5116015;28;20134;-69
2023/06/01 09:35:07;;;;;;;0.50;0.50;;;13.80;99.90;;;;;;5116067;28;20141;-69
2023/06/01 09:37:34;;;;;;;8.65;0.60;;;13.90;99.90;;;;;;5116240;28;20050;-69
2023/06/01 09:40:01;;;;;;;0.40;0.40;;;13.90;99.90;;;;;;5115984;28;20036;-69
2023/06/01 09:42:34;;;;;;;0.50;0.50;;;14.00;99.90;;;;;;5115749;28;20438;-70
2023/06/01 09:45:22;;;;;;;0.47;0.47;;;13.90;99.90;;;;;;5115705;28;20118;-70
2023/06/01 09:48:18;;;;;;;0.40;0.40;;;14.00;99.90;;;;;;5116250;28;20088;-70
2023/06/01 09:50:44;;;;;;;0.40;0.40;;;13.80;99.90;;;;;;5116080;28;20122;-69
2023/06/01 09:53:10;;;;;;;0.40;0.40;;;13.70;99.90;;;;;;5115713;28;20039;-69
2023/06/01 09:55:36;;;;;;;0.50;0.50;;;13.70;99.90;;;;;;5115655;28;20028;-70
2023/06/01 09:58:19;;;;;;;0.50;0.50;;;13.70;99.90;;;;;;5115582;28;20039;-69
2023/06/01 10:00:47;;;;;;;0.50;0.50;;;13.70;99.90;;;;;;5115562;28;20039;-69
2023/06/01 10:03:14;;;;;;;0.50;0.50;;;13.60;99.90;;;;;;5115501;28;20083;-70
2023/06/01 10:05:41;;;;;;;0.50;0.50;;;13.60;99.90;;;;;;5115366;28;20051;-69
2023/06/01 10:08:08;;;;;;;;;;;13.60;99.90;;;;;;5115846;28;20078;-69
2023/06/01 10:10:33;;;;;;;0.40;0.40;;;13.70;99.90;;;;;;5115318;28;19920;-69
2023/06/01 10:12:59;;;;;;;0.40;0.40;;;13.80;99.90;;;;;;5115348;28;20482;-70
2023/06/01 10:15:25;;;;;;;0.50;0.50;;;14.00;99.90;;;;;;5115682;28;20395;-69
2023/06/01 10:17:51;;;;;;;0.40;0.40;;;14.10;99.90;;;;;;5115204;28;20039;-70
2023/06/01 10:20:16;;;;;;;0.40;0.40;;;14.10;99.90;;;;;;5115174;28;20047;-69
2023/06/01 10:22:42;;;;;;;0.50;0.50;;;14.10;99.90;;;;;;5115153;28;20114;-70
2023/06/01 10:25:11;;;;;;;0.40;0.40;;;14.20;99.90;;;;;;5114966;28;20369;-69
2023/06/01 10:27:45;;;;;;;0.40;0.40;;;14.00;99.90;;;;;;5115066;28;20044;-69
2023/06/01 10:30:11;;;;;;;0.50;0.50;;;13.90;99.90;;;;;;5115311;28;20048;-69
2023/06/01 10:32:36;;;;;;;0.40;0.40;;;13.90;99.90;;;;;;5114892;28;20080;-69
2023/06/01 10:35:03;;;;;;;0.40;0.40;;;13.90;99.90;;;;;;5115040;28;20043;-69
2023/06/01 10:37:29;;;;;;;;;;;14.00;99.90;;;;;;5115194;28;20063;-69
2023/06/01 10:40:30;;;;;;;0.50;0.50;;;14.00;99.90;;;;;;5114552;28;20363;-70
2023/06/01 10:42:55;;;;;;;0.40;0.40;;;14.00;99.90;;;;;;5114621;28;20056;-69
2023/06/01 10:45:40;;;;;;;0.60;0.60;;;14.10;99.90;;;;;;5114661;28;20043;-69
2023/06/01 10:48:12;;;;;;;1.00;0.82;;;14.20;99.90;;;;;;5114433;28;20040;-71
2023/06/01 10:50:39;;;;;;;0.40;0.40;;;14.10;99.90;;;;;;5114931;28;20039;-69
2023/06/01 10:53:30;;;;;;;0.40;0.40;;;14.10;99.90;;;;;;5113179;28;20467;-69
2023/06/01 10:56:24;;;;;;;0.40;0.40;;;14.00;99.90;;;;;;5114675;28;20069;-70
2023/06/01 10:59:08;;;;;;;0.40;0.40;;;13.90;99.90;;;;;;5114460;28;20040;-69
2023/06/01 11:01:42;;;;;;;0.43;0.43;;;13.90;99.90;;;;;;5114376;28;20070;-69
2023/06/01 11:04:08;;;;;;;0.40;0.40;;;13.90;99.90;;;;;;5114153;28;20054;-69
2023/06/01 11:06:37;;;;;;;0.50;0.50;;;13.90;99.90;;;;;;5114316;28;20044;-69
2023/06/01 11:09:05;;;;;;;0.40;0.40;;;14.10;99.90;;;;;;5114235;28;20059;-70
2023/06/01 11:11:52;;;;;;;0.77;0.77;;;14.10;99.90;;;;;;5114309;28;20394;-70
2023/06/01 11:14:19;;;;;;;0.50;0.50;;;13.90;99.90;;;;;;5114501;28;20058;-70
2023/06/01 11:16:45;;;;;;;0.40;0.40;;;13.70;99.90;;;;;;5114204;28;20039;-69
2023/06/01 11:19:18;;;;;;;0.60;0.60;;;13.60;99.90;;;;;;5114066;28;20035;-68
2023/06/01 11:21:44;;;;;;;0.47;0.47;;;13.60;99.90;;;;;;5114134;28;20122;-68
2023/06/01 11:24:14;;;;;;;0.73;0.73;;;13.50;99.90;;;;;;5114099;28;20423;-70
2023/06/01 11:26:45;;;;;;;0.45;0.45;;;13.50;99.90;;;;;;5114003;28;20043;-68
2023/06/01 11:29:20;;;;;;;0.70;0.70;;;13.50;99.90;;;;;;5114185;28;20122;-69
2023/06/01 11:31:54;;;;;;;0.50;0.50;;;13.60;99.90;;;;;;5113952;28;20035;-69
2023/06/01 11:34:28;;;;;;;0.60;0.60;;;13.60;99.90;;;;;;5114037;28;20149;-69
2023/06/01 11:36:55;;;;;;;0.40;0.40;;;13.70;99.90;;;;;;5114216;28;20058;-69
2023/06/01 11:39:25;;;;;;;0.40;0.40;;;13.80;99.90;;;;;;5114231;28;20052;-70
2023/06/01 11:42:09;;;;;;;0.45;0.45;;;13.90;99.90;;;;;;5113975;28;20070;-69
2023/06/01 11:44:39;;;;;;;1.55;1.45;;;14.20;99.90;;;;;;5113951;28;20416;-69
2023/06/01 11:47:07;;;;;;;0.50;0.50;;;14.40;99.90;;;;;;5113927;28;20092;-71
2023/06/01 11:49:50;;;;;;;0.50;0.50;;;14.60;99.90;;;;;;5114381;28;20078;-69
2023/06/01 11:52:20;;;;;;;0.43;0.43;;;15.10;99.90;;;;;;5118029;28;20039;-69
2023/06/01 11:54:46;;;;;;;0.40;0.40;;;14.80;99.90;;;;;;5117797;28;20468;-69
2023/06/01 11:57:12;;;;;;;0.40;0.40;;;14.80;99.90;;;;;;5117947;28;20040;-69
2023/06/01 11:59:43;;;;;;;0.60;0.60;;;14.90;99.90;;;;;;5118283;28;20417;-68
2023/06/01 12:02:26;;;;;;;0.50;0.50;;;15.10;99.90;;;;;;5117390;28;20052;-69
2023/06/01 12:05:08;;;;;;;0.60;0.60;;;15.10;99.90;;;;;;5117789;28;20043;-69
2023/06/01 12:07:48;;;;;;;0.55;0.55;;;15.20;99.90;;;;;;5117752;28;20035;-70
2023/06/01 12:10:16;;;;;;;0.40;0.40;;;15.30;99.90;;;;;;5117720;28;20045;-69
2023/06/01 12:12:43;;;;;;;0.40;0.40;;;15.30;99.90;;;;;;5117591;28;20035;-70
2023/06/01 12:15:10;;;;;;;0.40;0.40;;;15.30;99.90;;;;;;5117665;28;20062;-69
2023/06/01 12:17:55;;;;;;;0.40;0.40;;;15.40;99.90;;;;;;5117558;27;20042;-68
2023/06/01 12:20:27;;;;;;;0.40;0.40;;;15.60;99.90;;;;;;5117918;28;20046;-69
2023/06/01 12:22:55;;;;;;;0.50;0.50;;;15.70;99.90;;;;;;5117222;28;20539;-69
2023/06/01 12:25:21;;;;;;;0.30;0.30;;;15.80;99.90;;;;;;5117595;28;20039;-69
2023/06/01 12:28:09;;;;;;;0.40;0.40;;;15.80;99.90;;;;;;5117308;28;20054;-68
2023/06/01 12:30:36;;;;;;;;;;;15.80;99.90;;;;;;5117781;28;20080;-69
2023/06/01 12:33:04;;;;;;;0.40;0.40;;;16.30;99.90;;;;;;5117248;28;20403;-69
2023/06/01 12:35:30;;;;;;;0.40;0.40;;;15.70;99.90;;;;;;5117567;28;20075;-69
2023/06/01 12:38:11;;;;;;;0.40;0.40;;;15.80;99.90;;;;;;5117146;28;20051;-71
2023/06/01 12:40:38;;;;;;;0.40;0.40;;;15.90;99.90;;;;;;5117246;28;20353;-70
2023/06/01 12:43:05;;;;;;;;;;;15.70;99.90;;;;;;5117532;28;20039;-69
2023/06/01 12:45:40;;;;;;;0.33;0.33;;;15.70;99.90;;;;;;5117005;28;19916;-70
2023/06/01 12:48:06;;;;;;;0.40;0.40;;;15.70;99.90;;;;;;5115768;28;20043;-70
2023/06/01 12:50:31;;;;;;;0.40;0.40;;;15.90;99.90;;;;;;5116924;28;20047;-69
2023/06/01 12:52:57;;;;;;;0.40;0.40;;;16.00;99.90;;;;;;5116857;28;20123;-70
2023/06/01 12:55:23;;;;;;;0.40;0.40;;;16.10;99.90;;;;;;5116915;28;20376;-69
2023/06/01 12:57:55;;;;;;;0.50;0.50;;;16.20;99.90;;;;;;5116442;28;20048;-69